Fure West — OZ2100 — position and weather

sailwx.info

Track history (hours):
 
Tides and Currents Weather Stations Pressure Air Temp Water Temp Dewpoint Dewpoint Depression Visibility Wind Speed Wind Dir Waves Ship Positions

Fure West

Last reported at 2016-Jun-27 01:26 UTC. Time now 2016-Jun-27 13:17 UTC.
Position N 51°49' E 003°22'.

Length 144 m; draft 9.3 m.

MMSI: 231775000.

Date/timePositionNaut miles runAvg speedWind from/ knotsBaromVisibWave heightAir tempDewpointWater temp
2016-Jun-27 01:26N 51°49' E 003°22'0 0.0
2016-Jun-26 02:29N 51°49' E 003°22'0 0.0
2016-Jun-26 01:32N 51°49' E 003°22'0 0.0
2016-Jun-25 13:14N 51°49' E 003°22'0 0.0
2016-Jun-25 11:23N 51°49' E 003°22'0 0.0
2016-Jun-25 02:32N 51°49' E 003°22'0 0.1
2016-Jun-25 01:32N 51°49' E 003°22'0 0.0
2016-Jun-25 00:32N 51°49' E 003°22'0 0.0
2016-Jun-24 23:32N 51°49' E 003°22'0 0.0
2016-Jun-24 22:32N 51°49' E 003°22'0 0.0
2016-Jun-24 18:26N 51°49' E 003°22'0 0.0
2016-Jun-24 17:29N 51°49' E 003°22'0 0.0
2016-Jun-24 16:32N 51°49' E 003°22'0 0.0
2016-Jun-24 15:32N 51°49' E 003°22'0 0.0
2016-Jun-24 14:29N 51°49' E 003°22'0 0.1
2016-Jun-24 11:17N 51°49' E 003°22'0 0.0
2016-Jun-24 10:14N 51°49' E 003°22'0 0.0
2016-Jun-24 09:27N 51°49' E 003°22'0 0.0
2016-Jun-24 01:05N 51°49' E 003°22'0 0.1
2016-Jun-24 00:30N 51°49' E 003°22'6 6.4
2016-Jun-23 23:33N 51°46' E 003°14'41111.0
2016-Jun-22 10:04N 57°37' E 009°22'1711.6
2016-Jun-22 08:33N 57°43' E 009°53'1111.2
2016-Jun-22 07:33N 57°48' E 010°12'1110.8
2016-Jun-22 06:34N 57°50' E 010°32'1010.2
2016-Jun-22 05:33N 57°48' E 010°51'1212.1
2016-Jun-22 04:33N 57°43' E 011°11'1211.8
2016-Jun-22 03:33N 57°37' E 011°31'10 9.7
2016-Jun-22 02:33N 57°40' E 011°48'3 2.4
2016-Jun-22 01:31N 57°41' E 011°52'0 0.0
2016-Jun-22 00:31N 57°41' E 011°52'0 0.0
2016-Jun-20 21:33N 57°41' E 011°52'0 0.0
2016-Jun-20 20:33N 57°41' E 011°52'0 0.0
2016-Jun-20 19:33N 57°41' E 011°52'0 0.0
2016-Jun-20 18:32N 57°41' E 011°52'0 0.1
2016-Jun-20 17:34N 57°41' E 011°52'1010.1
2016-Jun-20 16:33N 57°37' E 011°35'1212.2
2016-Jun-20 15:33N 57°41' E 011°15'1414.1
2016-Jun-20 14:33N 57°48' E 010°51'7513.9
2016-Jun-20 09:10N 57°20' E 008°41'1014.3
2016-Jun-20 08:30N 57°14' E 008°28'1514.8
2016-Jun-20 07:30N 57°02' E 008°12'1515.4
2016-Jun-20 06:32N 56°49' E 007°58'9114.6
2016-Jun-20 00:18N 55°31' E 006°35'8214.3
2016-Jun-19 18:32N 54°19' E 005°23'1414.4
2016-Jun-19 17:33N 54°07' E 005°10'1414.4
2016-Jun-19 16:34N 53°54' E 005°01'1514.5
2016-Jun-19 15:30N 53°39' E 004°52'3014.5
2016-Jun-19 13:25N 53°12' E 004°33'1214.0
2016-Jun-19 12:33N 53°01' E 004°22'1413.8
2016-Jun-19 11:33N 52°49' E 004°12'1313.2
2016-Jun-19 10:33N 52°36' E 004°06'1312.8
2016-Jun-19 09:33N 52°29' E 004°23'8 8.3
2016-Jun-19 08:33N 52°28' E 004°37'4 4.2
2016-Jun-19 07:34N 52°26' E 004°43'2 1.8
2016-Jun-19 06:31N 52°25' E 004°45'0 0.0
2016-Jun-18 11:33N 52°25' E 004°45'4 3.7
2016-Jun-18 10:33N 52°27' E 004°40'4 3.5
2016-Jun-18 09:34N 52°28' E 004°35'6 5.8
2016-Jun-18 08:33N 52°29' E 004°25'8 8.1
2016-Jun-18 07:33N 52°29' E 004°12'2 2.0
2016-Jun-18 06:33N 52°28' E 004°09'0 0.1
2016-Jun-18 05:33N 52°28' E 004°09'0 0.1
2016-Jun-18 04:33N 52°28' E 004°09'0 0.0
2016-Jun-18 03:33N 52°28' E 004°09'0 0.0
2016-Jun-18 02:33N 52°28' E 004°09'0 0.0
2016-Jun-18 01:33N 52°28' E 004°09'0 0.0
2016-Jun-18 00:33N 52°28' E 004°09'0 0.2
2016-Jun-17 23:33N 52°28' E 004°09'0 0.1
2016-Jun-17 22:33N 52°28' E 004°09'0 0.0
2016-Jun-17 21:33N 52°28' E 004°09'0 0.0
2016-Jun-17 20:30N 52°28' E 004°09'0 0.0
2016-Jun-17 19:33N 52°28' E 004°09'0 0.0
2016-Jun-17 18:33N 52°28' E 004°09'0 0.0
2016-Jun-17 17:33N 52°28' E 004°09'0 0.1
2016-Jun-17 16:33N 52°28' E 004°09'0 0.1
2016-Jun-17 15:33N 52°28' E 004°09'0 0.0
2016-Jun-17 14:33N 52°28' E 004°09'0 0.0
2016-Jun-17 13:33N 52°28' E 004°09'0 0.0
2016-Jun-17 12:33N 52°28' E 004°09'0 0.0
2016-Jun-17 11:33N 52°28' E 004°09'0 0.1
2016-Jun-17 10:33N 52°28' E 004°09'0 0.0
2016-Jun-17 09:33N 52°28' E 004°09'0 0.0
2016-Jun-17 08:33N 52°28' E 004°09'0 0.0
2016-Jun-17 07:33N 52°28' E 004°09'0 0.0
2016-Jun-17 06:33N 52°28' E 004°09'0 0.0
2016-Jun-17 05:30N 52°28' E 004°09'0 0.1
2016-Jun-17 04:33N 52°28' E 004°09'0 0.1
2016-Jun-17 03:33N 52°28' E 004°09'0 0.0
2016-Jun-17 02:33N 52°28' E 004°09'0 0.0
2016-Jun-17 01:33N 52°28' E 004°09'  
Track history (hours):
 
Tides and Currents Weather Stations Pressure Air Temp Water Temp Dewpoint Dewpoint Depression Visibility Wind Speed Wind Dir Waves Ship Positions

Fure West

Last reported at 2016-Jun-27 01:26 UTC. Time now 2016-Jun-27 13:17 UTC.
Position N 51°49' E 003°22'.

Length 144 m; draft 9.3 m.

MMSI: 231775000.

Date/timePositionNaut miles runAvg speedWind from/ knotsBaromVisibWave heightAir tempDewpointWater temp
2016-Jun-27 01:26N 51°49' E 003°22'0 0.0
2016-Jun-26 02:29N 51°49' E 003°22'0 0.0
2016-Jun-26 01:32N 51°49' E 003°22'0 0.0
2016-Jun-25 13:14N 51°49' E 003°22'0 0.0
2016-Jun-25 11:23N 51°49' E 003°22'0 0.0
2016-Jun-25 02:32N 51°49' E 003°22'0 0.1
2016-Jun-25 01:32N 51°49' E 003°22'0 0.0
2016-Jun-25 00:32N 51°49' E 003°22'0 0.0
2016-Jun-24 23:32N 51°49' E 003°22'0 0.0
2016-Jun-24 22:32N 51°49' E 003°22'0 0.0
2016-Jun-24 18:26N 51°49' E 003°22'0 0.0
2016-Jun-24 17:29N 51°49' E 003°22'0 0.0
2016-Jun-24 16:32N 51°49' E 003°22'0 0.0
2016-Jun-24 15:32N 51°49' E 003°22'0 0.0
2016-Jun-24 14:29N 51°49' E 003°22'0 0.1
2016-Jun-24 11:17N 51°49' E 003°22'0 0.0
2016-Jun-24 10:14N 51°49' E 003°22'0 0.0
2016-Jun-24 09:27N 51°49' E 003°22'0 0.0
2016-Jun-24 01:05N 51°49' E 003°22'0 0.1
2016-Jun-24 00:30N 51°49' E 003°22'6 6.4
2016-Jun-23 23:33N 51°46' E 003°14'41111.0
2016-Jun-22 10:04N 57°37' E 009°22'1711.6
2016-Jun-22 08:33N 57°43' E 009°53'1111.2
2016-Jun-22 07:33N 57°48' E 010°12'1110.8
2016-Jun-22 06:34N 57°50' E 010°32'1010.2
2016-Jun-22 05:33N 57°48' E 010°51'1212.1
2016-Jun-22 04:33N 57°43' E 011°11'1211.8
2016-Jun-22 03:33N 57°37' E 011°31'10 9.7
2016-Jun-22 02:33N 57°40' E 011°48'3 2.4
2016-Jun-22 01:31N 57°41' E 011°52'0 0.0
2016-Jun-22 00:31N 57°41' E 011°52'0 0.0
2016-Jun-20 21:33N 57°41' E 011°52'0 0.0
2016-Jun-20 20:33N 57°41' E 011°52'0 0.0
2016-Jun-20 19:33N 57°41' E 011°52'0 0.0
2016-Jun-20 18:32N 57°41' E 011°52'0 0.1
2016-Jun-20 17:34N 57°41' E 011°52'1010.1
2016-Jun-20 16:33N 57°37' E 011°35'1212.2
2016-Jun-20 15:33N 57°41' E 011°15'1414.1
2016-Jun-20 14:33N 57°48' E 010°51'7513.9
2016-Jun-20 09:10N 57°20' E 008°41'1014.3
2016-Jun-20 08:30N 57°14' E 008°28'1514.8
2016-Jun-20 07:30N 57°02' E 008°12'1515.4
2016-Jun-20 06:32N 56°49' E 007°58'9114.6
2016-Jun-20 00:18N 55°31' E 006°35'8214.3
2016-Jun-19 18:32N 54°19' E 005°23'1414.4
2016-Jun-19 17:33N 54°07' E 005°10'1414.4
2016-Jun-19 16:34N 53°54' E 005°01'1514.5
2016-Jun-19 15:30N 53°39' E 004°52'3014.5
2016-Jun-19 13:25N 53°12' E 004°33'1214.0
2016-Jun-19 12:33N 53°01' E 004°22'1413.8
2016-Jun-19 11:33N 52°49' E 004°12'1313.2
2016-Jun-19 10:33N 52°36' E 004°06'1312.8
2016-Jun-19 09:33N 52°29' E 004°23'8 8.3
2016-Jun-19 08:33N 52°28' E 004°37'4 4.2
2016-Jun-19 07:34N 52°26' E 004°43'2 1.8
2016-Jun-19 06:31N 52°25' E 004°45'0 0.0
2016-Jun-18 11:33N 52°25' E 004°45'4 3.7
2016-Jun-18 10:33N 52°27' E 004°40'4 3.5
2016-Jun-18 09:34N 52°28' E 004°35'6 5.8
2016-Jun-18 08:33N 52°29' E 004°25'8 8.1
2016-Jun-18 07:33N 52°29' E 004°12'2 2.0
2016-Jun-18 06:33N 52°28' E 004°09'0 0.1
2016-Jun-18 05:33N 52°28' E 004°09'0 0.1
2016-Jun-18 04:33N 52°28' E 004°09'0 0.0
2016-Jun-18 03:33N 52°28' E 004°09'0 0.0
2016-Jun-18 02:33N 52°28' E 004°09'0 0.0
2016-Jun-18 01:33N 52°28' E 004°09'0 0.0
2016-Jun-18 00:33N 52°28' E 004°09'0 0.2
2016-Jun-17 23:33N 52°28' E 004°09'0 0.1
2016-Jun-17 22:33N 52°28' E 004°09'0 0.0
2016-Jun-17 21:33N 52°28' E 004°09'0 0.0
2016-Jun-17 20:30N 52°28' E 004°09'0 0.0
2016-Jun-17 19:33N 52°28' E 004°09'0 0.0
2016-Jun-17 18:33N 52°28' E 004°09'0 0.0
2016-Jun-17 17:33N 52°28' E 004°09'0 0.1
2016-Jun-17 16:33N 52°28' E 004°09'0 0.1
2016-Jun-17 15:33N 52°28' E 004°09'0 0.0
2016-Jun-17 14:33N 52°28' E 004°09'0 0.0
2016-Jun-17 13:33N 52°28' E 004°09'0 0.0
2016-Jun-17 12:33N 52°28' E 004°09'0 0.0
2016-Jun-17 11:33N 52°28' E 004°09'0 0.1
2016-Jun-17 10:33N 52°28' E 004°09'0 0.0
2016-Jun-17 09:33N 52°28' E 004°09'0 0.0
2016-Jun-17 08:33N 52°28' E 004°09'0 0.0
2016-Jun-17 07:33N 52°28' E 004°09'0 0.0
2016-Jun-17 06:33N 52°28' E 004°09'0 0.0
2016-Jun-17 05:30N 52°28' E 004°09'0 0.1
2016-Jun-17 04:33N 52°28' E 004°09'0 0.1
2016-Jun-17 03:33N 52°28' E 004°09'0 0.0
2016-Jun-17 02:33N 52°28' E 004°09'0 0.0
2016-Jun-17 01:33N 52°28' E 004°09'  

Dump ship's entire track history